Time;durP1;ratioP1;P1;durP2;ratioP2;P2;SDS_P1;SDS_P2;PMS_P1;PMS_P2;Temp;Humidity;BMP_temperature;BMP_pressure;BME280_temperature;BME280_humidity;BME280_pressure;Samples;Min_cycle;Max_cycle;Signal;HPM_P1;HPM_P2
2021/04/09 00:02:06;;;;;;;18.57;14.90;;;;;;;2.26;65.54;100883.50;1782556;80;21646;-54
2021/04/09 00:04:36;;;;;;;18.98;13.85;;;;;;;2.26;65.66;100882.14;1782362;80;21663;-54
2021/04/09 00:07:07;;;;;;;20.00;14.15;;;;;;;2.25;65.89;100876.40;1782418;80;21584;-54
2021/04/09 00:09:35;;;;;;;19.07;13.88;;;;;;;2.25;66.05;100884.53;1782534;80;20990;-55
2021/04/09 00:12:12;;;;;;;17.90;13.25;;;;;;;2.26;66.22;100875.36;1782563;80;20981;-54
2021/04/09 00:14:43;;;;;;;17.85;12.80;;;;;;;2.28;66.43;100882.76;1752832;80;21049;-54
2021/04/09 00:17:12;;;;;;;18.02;12.63;;;;;;;2.33;66.48;100884.34;1782181;80;21242;-54
2021/04/09 00:19:43;;;;;;;16.40;13.43;;;;;;;2.35;66.53;100889.02;1782302;80;21018;-56
2021/04/09 00:22:11;;;;;;;18.77;13.70;;;;;;;2.35;66.62;100894.44;1782951;80;21597;-54
2021/04/09 00:24:38;;;;;;;23.60;15.55;;;;;;;2.35;66.58;100893.61;1782522;80;20982;-54
2021/04/09 00:27:08;;;;;;;17.77;13.70;;;;;;;2.32;66.61;100897.56;1782190;78;21057;-54
2021/04/09 00:29:35;;;;;;;20.05;15.85;;;;;;;2.29;66.62;100902.05;1782433;80;21381;-56
2021/04/09 00:32:06;;;;;;;19.48;14.53;;;;;;;2.25;66.85;100899.44;1781436;80;21013;-54
2021/04/09 00:34:34;;;;;;;19.73;14.15;;;;;;;2.20;67.00;100905.98;1782492;79;21644;-54
2021/04/09 00:37:09;;;;;;;18.52;14.35;;;;;;;2.16;67.13;100915.06;1782640;80;21076;-54
2021/04/09 00:39:37;;;;;;;21.30;15.50;;;;;;;2.16;67.21;100916.92;1782521;79;20974;-53
2021/04/09 00:42:07;;;;;;;21.40;15.78;;;;;;;2.18;67.18;100925.70;1782653;80;21367;-56
2021/04/09 00:44:40;;;;;;;21.20;16.67;;;;;;;2.19;67.10;100921.42;1782462;80;21067;-54
2021/04/09 00:47:06;;;;;;;18.90;14.55;;;;;;;2.20;67.02;100923.60;1782532;80;20989;-54
2021/04/09 00:49:37;;;;;;;21.27;15.08;;;;;;;2.16;67.03;100925.91;1781961;79;21045;-53
2021/04/09 00:52:05;;;;;;;30.62;18.82;;;;;;;2.14;67.31;100909.53;1782187;80;21616;-54
2021/04/09 00:54:40;;;;;;;31.73;21.82;;;;;;;2.10;67.65;100931.30;1782131;80;21654;-55
2021/04/09 00:57:08;;;;;;;22.20;16.97;;;;;;;2.06;67.75;100929.54;1782399;80;21159;-55
2021/04/09 00:59:40;;;;;;;21.57;15.88;;;;;;;2.05;67.78;100927.33;1752641;80;20997;-55
2021/04/09 01:02:17;;;;;;;19.42;14.50;;;;;;;2.04;67.78;100932.45;1782453;80;21034;-54
2021/04/09 01:04:42;;;;;;;20.17;13.98;;;;;;;2.05;67.77;100930.57;1782225;80;20978;-54
2021/04/09 01:07:09;;;;;;;21.00;16.50;;;;;;;2.02;67.98;100930.98;1782708;80;22006;-54
2021/04/09 01:09:37;;;;;;;24.55;17.65;;;;;;;2.02;67.96;100935.05;1782536;80;21026;-54
2021/04/09 01:12:09;;;;;;;22.30;16.90;;;;;;;1.98;67.96;100930.55;1782445;80;21069;-54
2021/04/09 01:14:39;;;;;;;24.00;16.97;;;;;;;1.98;67.99;100941.38;1782424;79;21611;-54
2021/04/09 01:17:29;;;;;;;24.27;17.05;;;;;;;2.00;68.00;100936.61;1782723;80;21009;-54
2021/04/09 01:20:27;;;;;;;23.15;17.27;;;;;;;1.98;68.05;100948.69;1782189;80;21345;-54
2021/04/09 01:23:41;;;;;;;23.77;17.05;;;;;;;1.97;68.25;100946.50;1782382;80;20982;-54
2021/04/09 01:27:01;;;;;;;24.27;17.75;;;;;;;2.00;68.17;100950.16;1782749;80;21042;-54
2021/04/09 01:30:04;;;;;;;21.35;17.35;;;;;;;2.00;68.14;100952.87;1782161;80;21038;-54
2021/04/09 01:32:32;;;;;;;23.12;16.82;;;;;;;1.99;68.14;100962.03;1740897;80;21025;-54
2021/04/09 01:35:06;;;;;;;19.82;15.75;;;;;;;1.98;68.22;100958.99;1782319;80;21290;-54
2021/04/09 01:37:50;;;;;;;28.80;18.60;;;;;;;1.92;68.31;100957.11;1782438;80;21639;-54
2021/04/09 01:40:23;;;;;;;17.87;14.73;;;;;;;1.92;68.43;100965.23;1782441;80;21599;-54
2021/04/09 01:42:56;;;;;;;22.42;16.20;;;;;;;1.92;68.47;100958.99;1782117;80;21592;-55
2021/04/09 01:45:28;;;;;;;18.02;14.10;;;;;;;1.90;68.55;100968.64;1782326;80;20993;-56
2021/04/09 01:48:00;;;;;;;21.27;16.60;;;;;;;1.91;68.69;100971.69;1782461;79;21367;-55
2021/04/09 01:50:39;;;;;;;18.92;15.48;;;;;;;1.88;68.99;100974.80;1782265;80;21037;-55
2021/04/09 01:53:07;;;;;;;20.62;15.10;;;;;;;1.91;69.12;100968.97;1782686;80;21037;-55
2021/04/09 01:55:42;;;;;;;20.37;15.93;;;;;;;1.90;69.15;100978.98;1782418;80;21025;-55
2021/04/09 01:58:19;;;;;;;;;;;;;;;1.91;69.36;100979.81;1784828;80;20986;-55
2021/04/09 02:00:48;;;;;;;23.55;17.00;;;;;;;1.89;69.35;100985.96;1782044;80;21206;-55
2021/04/09 02:03:21;;;;;;;21.82;16.02;;;;;;;1.87;69.32;100988.02;1782427;80;21041;-55
2021/04/09 02:05:53;;;;;;;24.50;16.23;;;;;;;1.88;69.37;100995.12;1782436;80;21053;-55
2021/04/09 02:08:21;;;;;;;20.08;16.45;;;;;;;1.89;69.30;100992.73;1782294;79;21846;-54
2021/04/09 02:10:50;;;;;;;22.35;17.40;;;;;;;1.91;69.36;100997.42;1782281;80;21018;-56
2021/04/09 02:13:28;;;;;;;25.70;16.90;;;;;;;1.92;69.28;101005.05;1782886;80;21387;-54
2021/04/09 02:16:03;;;;;;;22.10;16.35;;;;;;;1.90;69.30;101009.28;1782460;80;20991;-54
2021/04/09 02:18:32;;;;;;;23.67;16.10;;;;;;;1.88;69.31;101010.02;1782536;80;21044;-54
2021/04/09 02:21:01;;;;;;;22.30;17.07;;;;;;;1.84;69.51;101010.10;1782667;80;21615;-54
2021/04/09 02:23:33;;;;;;;20.55;14.20;;;;;;;1.81;69.59;101008.62;1782328;80;21660;-55
2021/04/09 02:26:12;;;;;;;24.60;17.05;;;;;;;1.79;69.84;101008.00;1782261;80;21045;-55
2021/04/09 02:28:38;;;;;;;29.23;18.40;;;;;;;1.77;69.99;101001.11;1791401;79;21612;-55
2021/04/09 02:31:11;;;;;;;21.80;16.95;;;;;;;1.76;70.07;100998.07;1797219;79;21044;-54
2021/04/09 02:33:41;;;;;;;23.92;15.72;;;;;;;1.73;70.06;101001.52;1797238;79;21049;-54
2021/04/09 02:36:15;;;;;;;20.15;16.48;;;;;;;1.74;70.39;100999.63;1797119;79;21029;-55
2021/04/09 02:38:47;;;;;;;22.27;16.17;;;;;;;1.72;70.45;101015.26;1796713;79;21353;-55
2021/04/09 02:41:16;;;;;;;22.10;16.97;;;;;;;1.71;70.58;101010.88;1796358;79;21037;-55
2021/04/09 02:43:46;;;;;;;19.57;16.10;;;;;;;1.72;70.75;101014.73;1796941;79;21001;-54
2021/04/09 02:46:33;;;;;;;18.15;15.28;;;;;;;1.70;70.69;101015.95;1796913;79;21063;-55
2021/04/09 02:49:07;;;;;;;21.40;16.02;;;;;;;1.69;70.82;101019.20;1796821;78;20985;-54
2021/04/09 02:51:41;;;;;;;23.60;16.93;;;;;;;1.67;70.75;101018.58;1797362;79;21204;-54
2021/04/09 02:54:06;;;;;;;22.35;16.82;;;;;;;1.66;70.92;101025.02;1796400;79;21187;-54
2021/04/09 02:56:37;;;;;;;19.50;16.50;;;;;;;1.67;70.90;101029.41;1797035;79;21041;-54
2021/04/09 02:59:10;;;;;;;20.57;16.17;;;;;;;1.68;70.88;101031.59;1794520;79;21041;-54
2021/04/09 03:01:41;;;;;;;21.52;16.50;;;;;;;1.68;70.98;101036.48;1796726;79;21016;-54
2021/04/09 03:04:22;;;;;;;23.62;16.73;;;;;;;1.71;71.21;101040.13;1845214;76;22236;-54
2021/04/09 03:06:49;;;;;;;19.27;16.37;;;;;;;1.64;71.28;101048.73;1815070;79;21013;-55
2021/04/09 03:09:22;;;;;;;22.20;17.80;;;;;;;1.65;71.35;101053.13;1815229;79;21184;-55
2021/04/09 03:11:52;;;;;;;21.87;17.05;;;;;;;1.65;71.36;101055.83;1815273;78;20985;-55
2021/04/09 03:14:24;;;;;;;25.62;15.60;;;;;;;1.68;71.50;101063.56;1815093;79;21061;-55
2021/04/09 03:17:03;;;;;;;22.67;16.12;;;;;;;1.71;71.53;101060.45;1815399;79;21005;-54
2021/04/09 03:19:31;;;;;;;21.02;17.17;;;;;;;1.77;71.46;101066.94;1815388;78;21647;-55
2021/04/09 03:22:10;;;;;;;22.87;17.87;;;;;;;1.81;71.51;101074.99;1815150;78;21183;-55
2021/04/09 03:24:38;;;;;;;24.18;17.62;;;;;;;1.88;71.43;101081.28;1815429;79;21622;-54
2021/04/09 03:27:16;;;;;;;25.75;20.15;;;;;;;1.96;71.34;101080.30;1815381;79;21119;-55
2021/04/09 03:29:47;;;;;;;23.77;17.00;;;;;;;2.01;71.25;101081.88;1815135;79;21012;-54
2021/04/09 03:32:17;;;;;;;23.22;18.20;;;;;;;2.07;71.18;101079.73;1815049;78;21001;-55
2021/04/09 03:34:51;;;;;;;22.25;16.60;;;;;;;2.12;71.02;101085.08;1814895;79;21415;-54
2021/04/09 03:37:20;;;;;;;22.42;16.67;;;;;;;2.18;70.92;101091.03;1815155;79;21010;-55
2021/04/09 03:39:53;;;;;;;22.98;17.90;;;;;;;2.21;70.85;101098.77;1814266;79;21754;-55
2021/04/09 03:42:27;;;;;;;23.00;17.62;;;;;;;2.26;70.75;101100.36;1815296;78;21030;-55
2021/04/09 03:45:06;;;;;;;24.32;17.65;;;;;;;2.32;70.66;101106.85;1815448;78;20976;-54
2021/04/09 03:47:34;;;;;;;23.40;18.12;;;;;;;2.34;70.61;101115.07;1812417;79;21204;-54
2021/04/09 03:50:06;;;;;;;24.87;18.23;;;;;;;2.38;70.63;101114.16;1783204;80;21061;-54
2021/04/09 03:52:41;;;;;;;24.90;18.65;;;;;;;2.45;70.53;101122.34;1783134;80;21033;-55
2021/04/09 03:55:11;;;;;;;23.00;17.02;;;;;;;2.50;70.41;101130.19;1782545;80;21045;-55
2021/04/09 03:57:40;;;;;;;34.38;18.57;;;;;;;2.54;70.23;101129.24;1782575;80;21143;-54
2021/04/09 04:00:09;;;;;;;24.90;16.97;;;;;;;2.55;70.18;101129.03;1782912;80;21206;-55
2021/04/09 04:02:37;;;;;;;21.02;17.60;;;;;;;2.58;70.20;101131.34;1785092;79;21060;-54
2021/04/09 04:05:08;;;;;;;25.23;19.05;;;;;;;2.64;70.03;101126.98;1797281;79;21025;-55
2021/04/09 04:07:40;;;;;;;26.62;18.07;;;;;;;2.68;69.95;101139.09;1797413;79;21028;-55
2021/04/09 04:10:12;;;;;;;28.25;19.15;;;;;;;2.68;69.89;101136.39;1797689;79;21599;-55
2021/04/09 04:12:41;;;;;;;25.23;20.20;;;;;;;2.67;69.74;101134.73;1797518;79;22094;-55
2021/04/09 04:15:11;;;;;;;32.78;19.80;;;;;;;2.67;69.73;101146.94;1795147;79;21199;-55
2021/04/09 04:17:40;;;;;;;24.18;19.52;;;;;;;2.68;69.81;101149.95;1796871;79;20973;-55
2021/04/09 04:20:09;;;;;;;25.37;22.10;;;;;;;2.73;69.71;101162.39;1796490;79;21009;-55
2021/04/09 04:22:39;;;;;;;35.70;28.07;;;;;;;2.79;69.63;101158.53;1797096;79;21049;-54
2021/04/09 04:25:10;;;;;;;23.45;19.57;;;;;;;2.81;69.54;101157.83;1796925;79;20981;-55
2021/04/09 04:27:43;;;;;;;30.48;21.10;;;;;;;2.83;69.50;101152.52;1796920;79;20993;-55
2021/04/09 04:30:14;;;;;;;24.12;19.48;;;;;;;2.87;69.43;101152.43;1796686;79;20973;-54
2021/04/09 04:32:43;;;;;;;26.05;18.48;;;;;;;2.92;69.30;101155.34;1796918;79;21032;-59
2021/04/09 04:35:15;;;;;;;25.97;20.05;;;;;;;2.98;69.20;101163.72;1796577;79;21067;-55
2021/04/09 04:37:43;;;;;;;28.83;21.17;;;;;;;3.02;68.94;101161.74;1796716;79;21366;-55
2021/04/09 04:40:16;;;;;;;27.62;20.30;;;;;;;3.03;68.87;101167.50;1797017;79;21028;-55
2021/04/09 04:42:43;;;;;;;28.45;20.32;;;;;;;3.09;68.87;101174.81;1796774;79;21068;-55
2021/04/09 04:45:17;;;;;;;27.32;19.95;;;;;;;3.17;68.75;101180.55;1797297;79;21635;-55
2021/04/09 04:47:45;;;;;;;25.85;18.92;;;;;;;3.26;68.63;101179.87;1797057;78;21646;-54
2021/04/09 04:50:16;;;;;;;30.23;19.27;;;;;;;3.40;68.46;101183.41;1796951;79;21355;-55
2021/04/09 04:52:54;;;;;;;27.22;21.07;;;;;;;3.55;68.18;101191.39;1796745;79;21383;-55
2021/04/09 04:55:30;;;;;;;31.65;18.95;;;;;;;3.66;67.84;101196.20;1796818;79;21048;-55
2021/04/09 04:57:59;;;;;;;23.27;17.30;;;;;;;3.76;67.59;101195.79;1796843;79;21029;-55
2021/04/09 05:00:29;;;;;;;25.80;18.40;;;;;;;3.83;67.26;101202.56;1796778;79;21187;-55
2021/04/09 05:02:56;;;;;;;28.07;19.87;;;;;;;3.87;66.98;101206.53;1796362;79;21371;-54
2021/04/09 05:05:27;;;;;;;23.35;18.60;;;;;;;3.88;66.63;101206.32;1794603;79;21025;-55
2021/04/09 05:07:56;;;;;;;26.65;18.95;;;;;;;3.96;66.75;101198.50;1792133;79;21013;-55
2021/04/09 05:10:25;;;;;;;33.63;20.10;;;;;;;4.07;66.41;101206.52;1794293;79;20981;-55
2021/04/09 05:12:57;;;;;;;23.57;18.67;;;;;;;4.18;66.11;101213.21;1794173;79;21164;-55
2021/04/09 05:15:24;;;;;;;24.92;18.48;;;;;;;4.27;65.90;101213.28;1794353;79;21795;-55
2021/04/09 05:17:57;;;;;;;29.42;19.40;;;;;;;4.39;65.76;101218.39;1794405;79;21670;-55
2021/04/09 05:20:28;;;;;;;30.40;19.75;;;;;;;4.46;65.34;101216.49;1794370;79;20997;-54
2021/04/09 05:23:04;;;;;;;28.95;19.48;;;;;;;4.55;64.93;101226.62;1794496;79;21045;-54
2021/04/09 05:25:46;;;;;;;27.10;20.45;;;;;;;4.64;64.62;101228.07;1794328;79;20970;-55
2021/04/09 05:28:11;;;;;;;31.02;21.42;;;;;;;4.72;64.42;101228.34;1794498;79;21165;-54
2021/04/09 05:30:39;;;;;;;28.27;20.60;;;;;;;4.81;64.17;101227.58;1794421;79;21658;-55
2021/04/09 05:33:15;;;;;;;33.02;22.70;;;;;;;4.88;64.04;101233.01;1791125;79;20993;-55
2021/04/09 05:35:46;;;;;;;29.05;19.80;;;;;;;4.95;63.66;101232.45;1794058;79;21064;-55
2021/04/09 05:38:23;;;;;;;24.65;18.98;;;;;;;4.99;63.55;101235.88;1794097;79;21017;-55
2021/04/09 05:41:00;;;;;;;27.10;19.25;;;;;;;5.06;63.51;101245.89;1794099;79;21238;-55
2021/04/09 05:43:27;;;;;;;34.18;19.55;;;;;;;5.10;63.30;101246.63;1793905;79;21084;-55
2021/04/09 05:45:54;;;;;;;24.85;18.77;;;;;;;5.15;63.26;101245.44;1794243;79;21052;-54
2021/04/09 05:48:24;;;;;;;26.40;19.87;;;;;;;5.23;62.98;101253.91;1794201;78;21089;-55
2021/04/09 05:50:54;;;;;;;26.40;20.35;;;;;;;5.24;62.81;101250.64;1794563;79;21029;-55
2021/04/09 05:53:33;;;;;;;26.62;20.17;;;;;;;5.33;62.78;101246.08;1845430;76;22767;-55
2021/04/09 05:56:03;;;;;;;28.98;20.00;;;;;;;5.27;62.56;101256.50;1815429;78;20994;-56
2021/04/09 05:58:36;;;;;;;32.58;19.00;;;;;;;5.27;62.45;101257.01;1815459;78;21587;-55
2021/04/09 06:01:04;;;;;;;42.53;22.13;;;;;;;5.28;62.43;101262.77;1815119;79;21878;-54
2021/04/09 06:03:33;;;;;;;30.32;19.70;;;;;;;5.32;62.40;101268.92;1815068;79;21033;-54
2021/04/09 06:06:07;;;;;;;36.73;20.85;;;;;;;5.37;62.19;101268.27;1814967;78;20989;-54
2021/04/09 06:08:35;;;;;;;24.98;19.27;;;;;;;5.38;62.14;101273.20;1814803;78;21029;-56
2021/04/09 06:11:07;;;;;;;31.23;22.00;;;;;;;5.38;62.04;101274.56;1815686;79;21135;-55
2021/04/09 06:13:36;;;;;;;30.88;20.32;;;;;;;5.33;61.97;101275.20;1815276;79;21045;-55
2021/04/09 06:16:06;;;;;;;27.02;19.62;;;;;;;5.31;61.96;101281.41;1809814;77;21015;-55
2021/04/09 06:18:35;;;;;;;35.43;21.07;;;;;;;5.31;62.29;101281.41;1759642;80;21176;-56
2021/04/09 06:21:07;;;;;;;29.42;23.22;;;;;;;5.39;62.24;101274.34;1768149;79;21048;-56
2021/04/09 06:23:38;;;;;;;31.87;21.70;;;;;;;5.30;62.24;101278.36;1763183;81;21654;-54
2021/04/09 06:26:12;;;;;;;30.90;21.10;;;;;;;5.26;62.40;101279.84;1717571;81;21598;-55
2021/04/09 06:28:41;;;;;;;33.35;23.02;;;;;;;5.26;62.42;101282.56;1760670;79;21064;-54
2021/04/09 06:31:14;;;;;;;43.55;25.20;;;;;;;5.26;62.54;101282.56;1763092;81;21071;-54
2021/04/09 06:33:46;;;;;;;25.15;19.65;;;;;;;5.16;62.65;101283.88;1739705;81;21651;-53
2021/04/09 06:36:16;;;;;;;36.20;23.25;;;;;;;5.23;62.91;101290.67;1782665;80;21195;-54
2021/04/09 06:38:44;;;;;;;32.38;24.63;;;;;;;5.30;62.77;101290.11;1782211;80;21049;-55
2021/04/09 06:41:21;;;;;;;34.25;23.55;;;;;;;5.44;62.47;101284.58;1782507;80;21181;-54
2021/04/09 06:43:48;;;;;;;28.87;21.65;;;;;;;5.57;62.19;101284.50;1781696;80;21639;-54
2021/04/09 06:46:22;;;;;;;29.42;22.82;;;;;;;5.68;61.69;101285.70;1782560;80;21010;-54
2021/04/09 06:48:49;;;;;;;30.37;23.45;;;;;;;5.78;61.59;101287.95;1782744;80;21021;-54
2021/04/09 06:51:19;;;;;;;31.80;24.18;;;;;;;5.87;61.46;101294.79;1782468;80;20998;-54
2021/04/09 06:53:56;;;;;;;31.15;24.50;;;;;;;6.00;61.40;101299.34;1782342;78;21073;-54
2021/04/09 06:56:27;;;;;;;45.15;28.00;;;;;;;6.15;60.85;101297.13;1782667;80;21682;-53
2021/04/09 06:59:08;;;;;;;42.85;27.58;;;;;;;6.24;60.38;101300.41;1782566;80;21078;-54
2021/04/09 07:01:35;;;;;;;46.28;33.55;;;;;;;6.31;60.25;101295.73;1788728;79;21189;-54
2021/04/09 07:04:06;;;;;;;41.60;29.50;;;;;;;6.48;60.29;101300.63;1747122;79;21126;-54
2021/04/09 07:07:17;;;;;;;45.50;31.30;;;;;;;6.72;59.63;101302.47;1878926;75;23429;-54
2021/04/09 07:09:46;;;;;;;41.95;31.05;;;;;;;6.80;59.08;101301.36;1845919;76;21004;-53
2021/04/09 07:12:31;;;;;;;47.95;32.25;;;;;;;6.92;58.43;101306.34;1825049;78;22351;-54
2021/04/09 07:15:07;;;;;;;43.30;30.55;;;;;;;6.96;58.16;101299.91;1824466;78;28756;-54
2021/04/09 07:17:48;;;;;;;42.45;29.57;;;;;;;7.06;58.08;101307.58;1823649;77;21012;-54
2021/04/09 07:20:24;;;;;;;38.78;26.75;;;;;;;7.23;57.94;101305.89;1826317;77;21099;-53
2021/04/09 07:22:56;;;;;;;37.30;26.33;;;;;;;7.36;57.28;101308.13;1823869;77;21661;-53
2021/04/09 07:25:41;;;;;;;42.78;25.92;;;;;;;7.48;57.06;101302.74;1823950;77;21362;-53
2021/04/09 07:28:17;;;;;;;41.50;26.68;;;;;;;7.66;56.65;101310.05;1822238;77;21438;-53
2021/04/09 07:30:53;;;;;;;32.73;25.45;;;;;;;7.84;56.38;101299.05;1834234;76;21048;-55
2021/04/09 07:33:24;;;;;;;32.28;22.17;;;;;;;8.02;55.36;101304.16;1825141;77;20994;-53
2021/04/09 07:36:00;;;;;;;21.40;15.68;;;;;;;8.13;54.45;101302.81;1825870;76;21052;-53
2021/04/09 07:38:33;;;;;;;23.38;15.08;;;;;;;8.22;51.21;101304.66;1820827;76;21084;-55
2021/04/09 07:41:10;;;;;;;21.62;13.88;;;;;;;8.25;50.78;101306.09;1827224;76;21199;-54
2021/04/09 07:43:43;;;;;;;18.02;12.55;;;;;;;8.37;49.91;101304.73;1823916;76;20976;-57
2021/04/09 07:46:30;;;;;;;16.10;11.70;;;;;;;8.53;49.01;101308.17;1829909;77;21035;-55
2021/04/09 07:49:05;;;;;;;16.55;12.50;;;;;;;8.65;48.01;101305.42;1755183;79;21753;-54
2021/04/09 07:51:33;;;;;;;31.15;13.48;;;;;;;8.78;48.59;101310.64;1748759;81;21499;-55
2021/04/09 07:54:09;;;;;;;17.32;12.53;;;;;;;8.90;48.18;101318.88;1738375;81;21076;-54
2021/04/09 07:59:44;;;;;;;15.80;11.83;;;;;;;9.14;45.86;101316.89;1823932;78;23325;-55
2021/04/09 08:02:12;;;;;;;16.65;13.10;;;;;;;9.11;45.85;101318.75;1809127;77;21036;-55
2021/04/09 08:04:45;;;;;;;21.02;13.08;;;;;;;9.25;46.15;101317.95;1738254;81;21457;-55
2021/04/09 08:07:34;;;;;;;17.85;12.20;;;;;;;9.51;46.54;101321.20;1769185;80;21082;-55
2021/04/09 08:10:07;;;;;;;16.85;12.58;;;;;;;9.77;45.07;101314.83;1735242;81;21609;-55
2021/04/09 08:12:36;;;;;;;17.98;12.05;;;;;;;9.96;44.82;101308.05;1738005;82;21090;-55
2021/04/09 08:15:24;;;;;;;15.88;12.30;;;;;;;10.25;44.61;101315.40;1747259;81;21663;-55
2021/04/09 08:18:07;;;;;;;16.77;12.90;;;;;;;10.51;43.33;101315.28;1741756;81;21158;-54
2021/04/09 08:20:46;;;;;;;16.80;12.15;;;;;;;10.66;42.73;101307.28;1742504;81;20996;-55
2021/04/09 08:23:15;;;;;;;19.12;10.90;;;;;;;10.65;42.74;101311.09;1745497;81;21058;-54
2021/04/09 08:25:45;;;;;;;20.72;11.95;;;;;;;10.58;41.08;101307.70;1742156;80;21110;-55
2021/04/09 08:28:17;;;;;;;37.42;12.55;;;;;;;10.42;40.78;101306.64;1737895;81;21050;-55
2021/04/09 08:30:45;;;;;;;13.75;11.28;;;;;;;10.24;41.28;101309.05;1741385;80;21576;-55
2021/04/09 08:33:19;;;;;;;15.60;9.55;;;;;;;10.08;41.09;101305.23;1740653;81;21601;-54
2021/04/09 08:35:46;;;;;;;16.93;8.55;;;;;;;10.02;40.89;101308.97;1753463;80;21249;-54
2021/04/09 08:38:14;;;;;;;17.45;8.05;;;;;;;10.00;41.04;101317.98;1749034;81;21104;-55
2021/04/09 08:40:43;;;;;;;15.45;8.10;;;;;;;9.90;40.19;101321.37;1705492;82;21039;-55
2021/04/09 08:43:14;;;;;;;19.37;12.63;;;;;;;9.78;40.43;101321.99;1743352;81;21137;-55
2021/04/09 08:45:44;;;;;;;12.53;8.85;;;;;;;9.74;40.66;101316.70;1747818;81;21111;-56
2021/04/09 08:48:13;;;;;;;15.95;8.23;;;;;;;9.77;40.73;101321.69;1734025;81;21099;-54
2021/04/09 08:50:43;;;;;;;11.25;6.95;;;;;;;9.76;40.69;101320.87;1717640;81;21061;-55
2021/04/09 08:53:27;;;;;;;9.58;6.87;;;;;;;9.78;40.28;101308.27;1718722;83;21029;-56
2021/04/09 08:55:58;;;;;;;10.15;7.10;;;;;;;9.81;39.95;101316.00;1711593;83;21554;-54
2021/04/09 08:58:30;;;;;;;14.23;7.60;;;;;;;9.83;39.94;101316.58;1714692;83;21656;-54
2021/04/09 09:01:03;;;;;;;10.03;7.30;;;;;;;9.91;40.21;101320.30;1706557;82;21070;-53
2021/04/09 09:03:31;;;;;;;10.90;7.35;;;;;;;10.35;38.68;101320.53;1712678;81;21073;-54
2021/04/09 09:06:08;;;;;;;10.70;8.13;;;;;;;10.88;38.61;101322.41;1724047;83;22223;-54
2021/04/09 09:08:53;;;;;;;10.10;6.97;;;;;;;11.32;37.20;101315.30;1722444;83;21423;-55
2021/04/09 09:11:56;;;;;;;10.20;7.30;;;;;;;11.54;36.17;101315.26;1714493;83;21049;-56
2021/04/09 09:14:37;;;;;;;13.62;7.05;;;;;;;11.51;35.72;101315.78;1710695;81;21090;-54
2021/04/09 09:17:24;;;;;;;10.70;7.42;;;;;;;11.40;36.09;101317.57;1713206;81;21215;-56
2021/04/09 09:20:17;;;;;;;12.18;7.08;;;;;;;11.32;35.87;101314.74;1718065;83;21083;-55
2021/04/09 09:22:55;;;;;;;10.72;6.78;;;;;;;11.20;36.11;101317.63;1714944;81;21164;-54
2021/04/09 09:25:34;;;;;;;12.13;6.08;;;;;;;10.90;35.53;101326.28;1721170;83;21089;-54
2021/04/09 09:28:10;;;;;;;11.15;6.53;;;;;;;10.46;34.95;101323.43;1715011;83;21648;-54
2021/04/09 09:30:42;;;;;;;11.68;7.10;;;;;;;10.07;35.83;101324.69;1705863;83;21073;-54
2021/04/09 09:33:28;;;;;;;9.08;6.53;;;;;;;10.00;36.75;101318.84;1704917;83;21083;-54
2021/04/09 09:36:09;;;;;;;17.52;8.88;;;;;;;10.07;36.22;101322.77;1706690;83;21082;-54
2021/04/09 09:38:57;;;;;;;13.90;7.55;;;;;;;10.26;37.53;101320.64;1715990;83;21092;-55
2021/04/09 09:41:47;;;;;;;10.13;7.03;;;;;;;10.77;38.53;101320.61;1705853;82;21240;-54
2021/04/09 09:44:33;;;;;;;12.30;7.53;;;;;;;11.42;37.22;101319.53;1705686;82;21100;-54
2021/04/09 09:47:26;;;;;;;11.48;6.95;;;;;;;12.04;36.69;101319.64;1716840;81;21073;-55
2021/04/09 09:50:11;;;;;;;9.98;6.90;;;;;;;12.59;35.11;101320.37;1713214;83;21425;-55
2021/04/09 09:53:03;;;;;;;10.80;6.35;;;;;;;13.13;33.81;101323.44;1712325;83;22047;-54
2021/04/09 09:55:41;;;;;;;11.48;5.67;;;;;;;13.56;33.51;101315.61;1720711;83;21071;-54
2021/04/09 09:58:26;;;;;;;8.18;4.78;;;;;;;13.99;30.88;101308.80;1730296;80;21668;-57
2021/04/09 10:01:06;;;;;;;9.25;4.30;;;;;;;14.38;29.32;101321.23;1766092;80;21076;-54
2021/04/09 10:03:38;;;;;;;10.58;5.40;;;;;;;14.53;29.03;101313.47;1768950;80;22665;-55
2021/04/09 10:06:12;;;;;;;31.85;17.92;;;;;;;14.81;27.98;101313.45;1766107;80;21034;-54
2021/04/09 10:08:50;;;;;;;16.82;8.55;;;;;;;14.84;29.38;101314.84;1756760;80;21046;-54
2021/04/09 10:11:24;;;;;;;17.37;9.35;;;;;;;14.73;28.35;101314.02;1768972;80;21083;-53
2021/04/09 10:13:52;;;;;;;15.58;6.60;;;;;;;14.38;28.91;101310.18;1768445;80;21176;-56
2021/04/09 10:16:30;;;;;;;14.93;8.38;;;;;;;13.92;29.61;101308.80;1769181;80;21376;-52
2021/04/09 10:19:13;;;;;;;8.45;5.78;;;;;;;13.45;29.24;101316.97;1783186;79;22739;-56
2021/04/09 10:21:42;;;;;;;11.83;6.30;;;;;;;13.04;29.95;101311.24;1760658;80;21604;-55
2021/04/09 10:24:21;;;;;;;13.72;7.15;;;;;;;12.83;30.98;101306.72;1759335;80;21626;-55
2021/04/09 10:27:04;;;;;;;11.50;5.17;;;;;;;12.64;30.83;101307.16;1758385;80;21069;-55
2021/04/09 10:29:36;;;;;;;8.38;6.17;;;;;;;12.52;30.69;101309.30;1760296;80;21076;-53
2021/04/09 10:32:16;;;;;;;14.10;6.03;;;;;;;12.33;31.16;101308.34;1758461;79;21063;-55
2021/04/09 10:34:49;;;;;;;11.78;6.30;;;;;;;12.25;31.51;101317.09;1764032;79;20962;-56
2021/04/09 10:37:21;;;;;;;11.48;7.35;;;;;;;12.22;31.82;101317.61;1758491;80;21363;-55
2021/04/09 10:39:52;;;;;;;13.10;8.03;;;;;;;12.27;31.71;101312.13;1756587;80;21085;-55
2021/04/09 10:42:22;;;;;;;15.75;7.60;;;;;;;12.35;31.22;101304.77;1728710;81;20952;-55
2021/04/09 10:44:50;;;;;;;32.25;12.10;;;;;;;12.43;31.46;101309.79;1705531;83;20997;-56
2021/04/09 10:47:18;;;;;;;10.58;6.78;;;;;;;12.54;31.05;101304.34;1709343;81;21067;-55
2021/04/09 10:49:50;;;;;;;12.33;6.55;;;;;;;12.89;30.69;101304.27;1674160;82;21159;-54
2021/04/09 10:52:20;;;;;;;24.45;11.28;;;;;;;13.46;30.61;101300.69;1679478;82;21089;-55
2021/04/09 10:54:59;;;;;;;9.40;5.97;;;;;;;14.14;29.77;101301.63;1726376;81;21057;-54
2021/04/09 10:57:31;;;;;;;12.53;6.50;;;;;;;14.74;29.32;101306.01;1704473;82;20998;-55
2021/04/09 11:00:08;;;;;;;7.60;5.80;;;;;;;15.10;28.57;101299.54;1668156;82;21005;-55
2021/04/09 11:02:30;;;;;;;12.10;6.40;;;;;;;15.23;28.66;101305.02;1706961;82;21231;-54
2021/04/09 11:05:09;;;;;;;13.60;6.20;;;;;;;15.29;28.70;101306.64;1690314;82;21007;-53
2021/04/09 11:07:45;;;;;;;11.68;6.78;;;;;;;15.18;28.16;101311.41;1705491;82;21018;-55
2021/04/09 11:13:09;;;;;;;15.95;6.97;;;;;;;14.71;28.17;101304.37;1853891;76;22922;-53
2021/04/09 11:15:43;;;;;;;10.08;6.92;;;;;;;14.44;28.83;101304.09;1824666;77;21212;-54
2021/04/09 11:18:13;;;;;;;9.70;6.30;;;;;;;14.14;28.54;101302.44;1826134;77;21175;-56
2021/04/09 11:20:46;;;;;;;13.58;6.83;;;;;;;13.90;28.65;101301.33;1833695;76;20977;-56
2021/04/09 11:23:15;;;;;;;10.32;6.55;;;;;;;13.60;28.95;101291.35;1828403;77;20994;-54
2021/04/09 11:25:51;;;;;;;11.43;6.35;;;;;;;13.38;28.94;101290.17;1831896;77;22242;-56
2021/04/09 11:28:24;;;;;;;19.42;6.90;;;;;;;13.15;29.45;101294.20;1831631;77;21425;-55
2021/04/09 11:30:59;;;;;;;12.53;7.50;;;;;;;12.98;29.79;101294.40;1793683;78;21183;-55
2021/04/09 11:33:33;;;;;;;21.57;9.78;;;;;;;12.91;30.24;101285.55;1775812;78;21056;-55
2021/04/09 11:36:22;;;;;;;18.82;7.15;;;;;;;12.83;30.70;101285.48;1778984;79;21001;-56
2021/04/09 11:39:15;;;;;;;13.08;6.40;;;;;;;12.77;30.12;101279.14;1785106;79;21000;-55
2021/04/09 11:42:08;;;;;;;14.83;8.33;;;;;;;12.65;30.07;101279.89;1770243;79;20971;-55
2021/04/09 11:44:39;;;;;;;17.15;8.00;;;;;;;12.57;30.75;101282.58;1780629;79;22118;-54
2021/04/09 11:47:20;;;;;;;13.60;8.73;;;;;;;12.52;31.17;101283.12;1779023;79;21548;-53
2021/04/09 11:50:00;;;;;;;47.20;9.95;;;;;;;12.49;30.98;101281.73;1777288;79;20987;-55
2021/04/09 11:52:48;;;;;;;13.13;6.50;;;;;;;12.38;30.81;101278.61;1778860;79;20949;-54
2021/04/09 11:55:39;;;;;;;11.10;7.33;;;;;;;12.29;31.30;101275.52;1855360;75;22798;-54